sensor_id;sensor_type;location;lat;lon;timestamp;P1;durP1;ratioP1;P2;durP2;ratioP2
77769;SDS011;66961;51.482;9.160;2023-05-25T00:01:44;21.90;;;9.93;;
77769;SDS011;66961;51.482;9.160;2023-05-25T00:04:09;19.60;;;10.47;;
77769;SDS011;66961;51.482;9.160;2023-05-25T00:06:35;20.33;;;9.10;;
77769;SDS011;66961;51.482;9.160;2023-05-25T00:09:00;22.08;;;10.15;;
77769;SDS011;66961;51.482;9.160;2023-05-25T00:11:25;21.70;;;10.53;;
77769;SDS011;66961;51.482;9.160;2023-05-25T00:13:51;22.77;;;9.77;;
77769;SDS011;66961;51.482;9.160;2023-05-25T00:16:17;21.30;;;10.38;;
77769;SDS011;66961;51.482;9.160;2023-05-25T00:18:42;26.10;;;10.93;;
77769;SDS011;66961;51.482;9.160;2023-05-25T00:21:07;22.17;;;11.10;;
77769;SDS011;66961;51.482;9.160;2023-05-25T00:23:33;22.02;;;11.50;;
77769;SDS011;66961;51.482;9.160;2023-05-25T00:25:59;20.40;;;10.40;;
77769;SDS011;66961;51.482;9.160;2023-05-25T00:28:26;26.65;;;11.43;;
77769;SDS011;66961;51.482;9.160;2023-05-25T00:30:51;24.33;;;10.17;;
77769;SDS011;66961;51.482;9.160;2023-05-25T00:33:17;22.17;;;10.40;;
77769;SDS011;66961;51.482;9.160;2023-05-25T00:35:42;25.73;;;11.77;;
77769;SDS011;66961;51.482;9.160;2023-05-25T00:38:16;20.10;;;10.52;;
77769;SDS011;66961;51.482;9.160;2023-05-25T00:40:42;27.58;;;10.65;;
77769;SDS011;66961;51.482;9.160;2023-05-25T00:43:07;20.23;;;10.10;;
77769;SDS011;66961;51.482;9.160;2023-05-25T00:45:33;18.10;;;9.63;;
77769;SDS011;66961;51.482;9.160;2023-05-25T00:47:59;19.52;;;9.63;;
77769;SDS011;66961;51.482;9.160;2023-05-25T00:50:46;23.35;;;11.13;;
77769;SDS011;66961;51.482;9.160;2023-05-25T00:53:11;23.63;;;10.05;;
77769;SDS011;66961;51.482;9.160;2023-05-25T00:55:52;18.13;;;9.50;;
77769;SDS011;66961;51.482;9.160;2023-05-25T00:58:26;23.50;;;11.52;;
77769;SDS011;66961;51.482;9.160;2023-05-25T01:00:55;25.83;;;10.57;;
77769;SDS011;66961;51.482;9.160;2023-05-25T01:03:23;20.75;;;9.95;;
77769;SDS011;66961;51.482;9.160;2023-05-25T01:05:53;23.75;;;10.00;;
77769;SDS011;66961;51.482;9.160;2023-05-25T01:08:19;18.98;;;9.15;;
77769;SDS011;66961;51.482;9.160;2023-05-25T01:10:47;23.45;;;9.35;;
77769;SDS011;66961;51.482;9.160;2023-05-25T01:13:16;19.80;;;10.23;;
77769;SDS011;66961;51.482;9.160;2023-05-25T01:15:43;18.70;;;9.85;;
77769;SDS011;66961;51.482;9.160;2023-05-25T01:18:09;22.13;;;10.43;;
77769;SDS011;66961;51.482;9.160;2023-05-25T01:20:34;20.00;;;10.20;;
77769;SDS011;66961;51.482;9.160;2023-05-25T01:23:09;19.33;;;9.20;;
77769;SDS011;66961;51.482;9.160;2023-05-25T01:25:38;20.83;;;10.40;;
77769;SDS011;66961;51.482;9.160;2023-05-25T01:28:10;24.85;;;10.18;;
77769;SDS011;66961;51.482;9.160;2023-05-25T01:30:40;18.40;;;9.15;;
77769;SDS011;66961;51.482;9.160;2023-05-25T01:33:09;21.65;;;9.30;;
77769;SDS011;66961;51.482;9.160;2023-05-25T01:35:35;19.23;;;9.18;;
77769;SDS011;66961;51.482;9.160;2023-05-25T01:38:00;18.30;;;8.93;;
77769;SDS011;66961;51.482;9.160;2023-05-25T01:40:26;23.50;;;9.05;;
77769;SDS011;66961;51.482;9.160;2023-05-25T01:42:52;22.52;;;9.98;;
77769;SDS011;66961;51.482;9.160;2023-05-25T01:45:17;23.98;;;9.50;;
77769;SDS011;66961;51.482;9.160;2023-05-25T01:50:29;16.27;;;8.45;;
77769;SDS011;66961;51.482;9.160;2023-05-25T01:53:04;19.95;;;8.73;;
77769;SDS011;66961;51.482;9.160;2023-05-25T01:55:41;18.08;;;8.52;;
77769;SDS011;66961;51.482;9.160;2023-05-25T01:58:12;19.17;;;8.93;;
77769;SDS011;66961;51.482;9.160;2023-05-25T02:00:39;22.10;;;10.10;;
77769;SDS011;66961;51.482;9.160;2023-05-25T02:03:04;15.93;;;9.10;;
77769;SDS011;66961;51.482;9.160;2023-05-25T02:05:30;17.58;;;9.27;;
77769;SDS011;66961;51.482;9.160;2023-05-25T02:07:55;20.90;;;10.17;;
77769;SDS011;66961;51.482;9.160;2023-05-25T02:10:20;21.50;;;10.50;;
77769;SDS011;66961;51.482;9.160;2023-05-25T02:12:46;21.27;;;10.47;;
77769;SDS011;66961;51.482;9.160;2023-05-25T02:15:11;20.43;;;10.10;;
77769;SDS011;66961;51.482;9.160;2023-05-25T02:17:36;22.42;;;10.52;;
77769;SDS011;66961;51.482;9.160;2023-05-25T02:20:02;20.92;;;9.93;;
77769;SDS011;66961;51.482;9.160;2023-05-25T02:22:29;20.20;;;9.65;;
77769;SDS011;66961;51.482;9.160;2023-05-25T02:24:54;23.70;;;10.07;;
77769;SDS011;66961;51.482;9.160;2023-05-25T02:27:19;22.17;;;9.63;;
77769;SDS011;66961;51.482;9.160;2023-05-25T02:29:44;17.90;;;8.97;;
77769;SDS011;66961;51.482;9.160;2023-05-25T02:32:10;17.23;;;9.40;;
77769;SDS011;66961;51.482;9.160;2023-05-25T02:34:35;21.87;;;9.33;;
77769;SDS011;66961;51.482;9.160;2023-05-25T02:37:00;21.17;;;10.53;;
77769;SDS011;66961;51.482;9.160;2023-05-25T02:39:26;24.87;;;11.17;;
77769;SDS011;66961;51.482;9.160;2023-05-25T02:41:51;17.58;;;8.48;;
77769;SDS011;66961;51.482;9.160;2023-05-25T02:44:16;23.77;;;10.73;;
77769;SDS011;66961;51.482;9.160;2023-05-25T02:46:41;18.87;;;10.30;;
77769;SDS011;66961;51.482;9.160;2023-05-25T02:49:07;17.83;;;10.33;;
77769;SDS011;66961;51.482;9.160;2023-05-25T02:51:32;21.63;;;11.40;;
77769;SDS011;66961;51.482;9.160;2023-05-25T02:53:57;19.83;;;9.87;;
77769;SDS011;66961;51.482;9.160;2023-05-25T02:56:22;19.43;;;10.53;;
77769;SDS011;66961;51.482;9.160;2023-05-25T02:58:48;16.20;;;9.13;;
77769;SDS011;66961;51.482;9.160;2023-05-25T03:01:14;19.33;;;9.05;;
77769;SDS011;66961;51.482;9.160;2023-05-25T03:03:39;19.42;;;9.90;;
77769;SDS011;66961;51.482;9.160;2023-05-25T03:06:04;18.33;;;9.17;;
77769;SDS011;66961;51.482;9.160;2023-05-25T03:08:30;20.55;;;10.25;;
77769;SDS011;66961;51.482;9.160;2023-05-25T03:10:55;19.70;;;10.87;;
77769;SDS011;66961;51.482;9.160;2023-05-25T03:13:20;17.45;;;9.25;;
77769;SDS011;66961;51.482;9.160;2023-05-25T03:15:46;15.43;;;8.35;;
77769;SDS011;66961;51.482;9.160;2023-05-25T03:18:11;13.70;;;8.40;;
77769;SDS011;66961;51.482;9.160;2023-05-25T03:20:36;14.73;;;8.63;;
77769;SDS011;66961;51.482;9.160;2023-05-25T03:23:02;18.30;;;9.90;;
77769;SDS011;66961;51.482;9.160;2023-05-25T03:25:27;15.57;;;8.83;;
77769;SDS011;66961;51.482;9.160;2023-05-25T03:27:52;15.77;;;8.73;;
77769;SDS011;66961;51.482;9.160;2023-05-25T03:30:19;17.65;;;9.60;;
77769;SDS011;66961;51.482;9.160;2023-05-25T03:32:45;15.57;;;9.60;;
77769;SDS011;66961;51.482;9.160;2023-05-25T03:35:10;19.03;;;8.93;;
77769;SDS011;66961;51.482;9.160;2023-05-25T03:37:36;17.97;;;9.47;;
77769;SDS011;66961;51.482;9.160;2023-05-25T03:40:01;13.53;;;8.60;;
77769;SDS011;66961;51.482;9.160;2023-05-25T03:42:26;13.30;;;8.38;;
77769;SDS011;66961;51.482;9.160;2023-05-25T03:44:52;15.43;;;9.15;;
77769;SDS011;66961;51.482;9.160;2023-05-25T03:47:17;14.57;;;7.90;;
77769;SDS011;66961;51.482;9.160;2023-05-25T03:49:43;13.40;;;8.80;;
77769;SDS011;66961;51.482;9.160;2023-05-25T03:52:08;15.00;;;8.83;;
77769;SDS011;66961;51.482;9.160;2023-05-25T03:54:33;18.17;;;9.47;;
77769;SDS011;66961;51.482;9.160;2023-05-25T03:56:59;16.48;;;9.30;;
77769;SDS011;66961;51.482;9.160;2023-05-25T03:59:24;15.95;;;9.30;;
77769;SDS011;66961;51.482;9.160;2023-05-25T04:01:49;18.63;;;9.10;;
77769;SDS011;66961;51.482;9.160;2023-05-25T04:04:15;16.98;;;8.35;;
77769;SDS011;66961;51.482;9.160;2023-05-25T04:06:40;11.37;;;7.63;;
77769;SDS011;66961;51.482;9.160;2023-05-25T04:09:07;17.13;;;9.43;;
77769;SDS011;66961;51.482;9.160;2023-05-25T04:11:32;15.67;;;8.87;;
77769;SDS011;66961;51.482;9.160;2023-05-25T04:13:57;19.60;;;8.63;;
77769;SDS011;66961;51.482;9.160;2023-05-25T04:16:22;15.40;;;8.63;;
77769;SDS011;66961;51.482;9.160;2023-05-25T04:18:48;16.00;;;8.67;;
77769;SDS011;66961;51.482;9.160;2023-05-25T04:21:13;16.53;;;9.70;;
77769;SDS011;66961;51.482;9.160;2023-05-25T04:23:39;13.80;;;8.35;;
77769;SDS011;66961;51.482;9.160;2023-05-25T04:26:04;17.00;;;9.35;;
77769;SDS011;66961;51.482;9.160;2023-05-25T04:28:30;17.70;;;9.02;;
77769;SDS011;66961;51.482;9.160;2023-05-25T04:30:56;16.52;;;8.93;;
77769;SDS011;66961;51.482;9.160;2023-05-25T04:33:22;17.13;;;8.65;;
77769;SDS011;66961;51.482;9.160;2023-05-25T04:35:47;13.68;;;8.40;;
77769;SDS011;66961;51.482;9.160;2023-05-25T04:38:12;12.43;;;8.40;;
77769;SDS011;66961;51.482;9.160;2023-05-25T04:40:38;14.20;;;8.43;;
77769;SDS011;66961;51.482;9.160;2023-05-25T04:43:03;12.32;;;8.10;;
77769;SDS011;66961;51.482;9.160;2023-05-25T04:45:28;15.10;;;9.10;;
77769;SDS011;66961;51.482;9.160;2023-05-25T04:47:54;14.60;;;9.27;;
77769;SDS011;66961;51.482;9.160;2023-05-25T04:50:19;17.08;;;9.00;;
77769;SDS011;66961;51.482;9.160;2023-05-25T04:52:46;15.73;;;9.25;;
77769;SDS011;66961;51.482;9.160;2023-05-25T04:55:11;17.13;;;9.88;;
77769;SDS011;66961;51.482;9.160;2023-05-25T04:57:36;15.77;;;9.05;;
77769;SDS011;66961;51.482;9.160;2023-05-25T05:00:01;17.30;;;9.30;;
77769;SDS011;66961;51.482;9.160;2023-05-25T05:02:27;20.98;;;9.80;;
77769;SDS011;66961;51.482;9.160;2023-05-25T05:04:52;22.30;;;9.23;;
77769;SDS011;66961;51.482;9.160;2023-05-25T05:07:21;21.93;;;9.87;;
77769;SDS011;66961;51.482;9.160;2023-05-25T05:09:46;30.23;;;11.23;;
77769;SDS011;66961;51.482;9.160;2023-05-25T05:12:11;26.02;;;10.48;;
77769;SDS011;66961;51.482;9.160;2023-05-25T05:14:37;17.20;;;8.77;;
77769;SDS011;66961;51.482;9.160;2023-05-25T05:17:02;21.13;;;9.47;;
77769;SDS011;66961;51.482;9.160;2023-05-25T05:19:27;23.57;;;9.87;;
77769;SDS011;66961;51.482;9.160;2023-05-25T05:21:52;23.37;;;10.17;;
77769;SDS011;66961;51.482;9.160;2023-05-25T05:24:18;25.00;;;10.47;;
77769;SDS011;66961;51.482;9.160;2023-05-25T05:26:43;27.67;;;10.30;;
77769;SDS011;66961;51.482;9.160;2023-05-25T05:29:08;27.43;;;11.50;;
77769;SDS011;66961;51.482;9.160;2023-05-25T05:31:33;29.73;;;13.17;;
77769;SDS011;66961;51.482;9.160;2023-05-25T05:33:59;39.10;;;12.70;;
77769;SDS011;66961;51.482;9.160;2023-05-25T05:36:24;33.33;;;12.70;;
77769;SDS011;66961;51.482;9.160;2023-05-25T05:38:49;33.60;;;13.07;;
77769;SDS011;66961;51.482;9.160;2023-05-25T05:41:14;27.43;;;12.63;;
77769;SDS011;66961;51.482;9.160;2023-05-25T05:43:40;32.03;;;15.03;;
77769;SDS011;66961;51.482;9.160;2023-05-25T05:46:06;35.88;;;15.38;;
77769;SDS011;66961;51.482;9.160;2023-05-25T05:48:32;32.55;;;14.80;;
77769;SDS011;66961;51.482;9.160;2023-05-25T05:50:57;29.05;;;13.82;;
77769;SDS011;66961;51.482;9.160;2023-05-25T05:53:22;34.20;;;13.90;;
77769;SDS011;66961;51.482;9.160;2023-05-25T05:55:47;34.40;;;15.00;;
77769;SDS011;66961;51.482;9.160;2023-05-25T05:58:13;37.00;;;13.73;;
77769;SDS011;66961;51.482;9.160;2023-05-25T06:00:38;30.67;;;14.13;;
77769;SDS011;66961;51.482;9.160;2023-05-25T06:03:03;33.33;;;13.07;;
77769;SDS011;66961;51.482;9.160;2023-05-25T06:05:28;36.50;;;14.87;;
77769;SDS011;66961;51.482;9.160;2023-05-25T06:07:54;35.10;;;15.67;;
77769;SDS011;66961;51.482;9.160;2023-05-25T06:10:19;30.27;;;15.10;;
77769;SDS011;66961;51.482;9.160;2023-05-25T06:12:44;32.60;;;15.93;;
77769;SDS011;66961;51.482;9.160;2023-05-25T06:15:10;32.40;;;14.83;;
77769;SDS011;66961;51.482;9.160;2023-05-25T06:17:35;35.55;;;15.48;;
77769;SDS011;66961;51.482;9.160;2023-05-25T06:20:00;38.13;;;15.23;;
77769;SDS011;66961;51.482;9.160;2023-05-25T06:22:26;30.80;;;14.80;;
77769;SDS011;66961;51.482;9.160;2023-05-25T06:24:51;33.97;;;14.73;;
77769;SDS011;66961;51.482;9.160;2023-05-25T06:27:16;35.70;;;15.10;;
77769;SDS011;66961;51.482;9.160;2023-05-25T06:29:42;37.17;;;15.90;;
77769;SDS011;66961;51.482;9.160;2023-05-25T06:32:07;34.43;;;15.80;;
77769;SDS011;66961;51.482;9.160;2023-05-25T06:34:32;38.30;;;16.55;;
77769;SDS011;66961;51.482;9.160;2023-05-25T06:36:57;37.17;;;17.40;;
77769;SDS011;66961;51.482;9.160;2023-05-25T06:39:23;31.80;;;16.10;;
77769;SDS011;66961;51.482;9.160;2023-05-25T06:41:48;39.60;;;15.83;;
77769;SDS011;66961;51.482;9.160;2023-05-25T06:44:13;34.90;;;15.47;;
77769;SDS011;66961;51.482;9.160;2023-05-25T06:46:38;31.60;;;15.57;;
77769;SDS011;66961;51.482;9.160;2023-05-25T06:49:04;30.40;;;14.27;;
77769;SDS011;66961;51.482;9.160;2023-05-25T06:51:29;32.65;;;16.67;;
77769;SDS011;66961;51.482;9.160;2023-05-25T06:53:54;35.20;;;15.47;;
77769;SDS011;66961;51.482;9.160;2023-05-25T06:56:20;29.07;;;14.63;;
77769;SDS011;66961;51.482;9.160;2023-05-25T06:58:45;31.40;;;14.93;;
77769;SDS011;66961;51.482;9.160;2023-05-25T07:01:11;30.47;;;15.50;;
77769;SDS011;66961;51.482;9.160;2023-05-25T07:03:36;25.15;;;15.25;;
77769;SDS011;66961;51.482;9.160;2023-05-25T07:06:01;29.48;;;14.60;;
77769;SDS011;66961;51.482;9.160;2023-05-25T07:08:27;30.40;;;14.98;;
77769;SDS011;66961;51.482;9.160;2023-05-25T07:10:52;28.43;;;14.77;;
77769;SDS011;66961;51.482;9.160;2023-05-25T07:13:17;26.47;;;16.03;;
77769;SDS011;66961;51.482;9.160;2023-05-25T07:15:43;22.23;;;12.90;;
77769;SDS011;66961;51.482;9.160;2023-05-25T07:18:08;22.63;;;13.53;;
77769;SDS011;66961;51.482;9.160;2023-05-25T07:20:33;27.13;;;14.50;;
77769;SDS011;66961;51.482;9.160;2023-05-25T07:22:58;23.47;;;13.37;;
77769;SDS011;66961;51.482;9.160;2023-05-25T07:25:24;22.47;;;13.97;;
77769;SDS011;66961;51.482;9.160;2023-05-25T07:27:49;25.07;;;13.73;;
77769;SDS011;66961;51.482;9.160;2023-05-25T07:30:15;22.00;;;13.48;;
77769;SDS011;66961;51.482;9.160;2023-05-25T07:32:40;23.63;;;12.77;;
77769;SDS011;66961;51.482;9.160;2023-05-25T07:35:05;22.48;;;12.50;;
77769;SDS011;66961;51.482;9.160;2023-05-25T07:37:31;23.30;;;13.25;;
77769;SDS011;66961;51.482;9.160;2023-05-25T07:39:56;23.73;;;14.37;;
77769;SDS011;66961;51.482;9.160;2023-05-25T07:42:22;22.60;;;13.17;;
77769;SDS011;66961;51.482;9.160;2023-05-25T07:44:47;23.10;;;14.52;;
77769;SDS011;66961;51.482;9.160;2023-05-25T07:47:13;27.70;;;16.33;;
77769;SDS011;66961;51.482;9.160;2023-05-25T07:49:38;25.55;;;15.77;;
77769;SDS011;66961;51.482;9.160;2023-05-25T07:52:04;32.00;;;18.85;;
77769;SDS011;66961;51.482;9.160;2023-05-25T07:54:29;26.98;;;16.45;;
77769;SDS011;66961;51.482;9.160;2023-05-25T07:56:54;29.03;;;15.20;;
77769;SDS011;66961;51.482;9.160;2023-05-25T07:59:19;33.20;;;17.57;;
77769;SDS011;66961;51.482;9.160;2023-05-25T08:01:45;25.87;;;14.40;;
77769;SDS011;66961;51.482;9.160;2023-05-25T08:04:10;29.77;;;14.83;;
77769;SDS011;66961;51.482;9.160;2023-05-25T08:06:35;22.30;;;13.83;;
77769;SDS011;66961;51.482;9.160;2023-05-25T08:09:02;23.90;;;13.47;;
77769;SDS011;66961;51.482;9.160;2023-05-25T08:11:27;21.60;;;13.75;;
77769;SDS011;66961;51.482;9.160;2023-05-25T08:13:53;24.63;;;13.90;;
77769;SDS011;66961;51.482;9.160;2023-05-25T08:16:18;22.23;;;13.70;;
77769;SDS011;66961;51.482;9.160;2023-05-25T08:18:43;22.90;;;12.60;;
77769;SDS011;66961;51.482;9.160;2023-05-25T08:21:08;22.43;;;13.47;;
77769;SDS011;66961;51.482;9.160;2023-05-25T08:23:34;22.03;;;13.23;;
77769;SDS011;66961;51.482;9.160;2023-05-25T08:25:59;20.93;;;12.90;;
77769;SDS011;66961;51.482;9.160;2023-05-25T08:28:24;22.43;;;13.40;;
77769;SDS011;66961;51.482;9.160;2023-05-25T08:30:49;21.40;;;12.93;;
77769;SDS011;66961;51.482;9.160;2023-05-25T08:33:15;21.53;;;11.23;;
77769;SDS011;66961;51.482;9.160;2023-05-25T08:35:40;20.90;;;12.37;;
77769;SDS011;66961;51.482;9.160;2023-05-25T08:38:05;20.52;;;13.50;;
77769;SDS011;66961;51.482;9.160;2023-05-25T08:40:31;21.77;;;12.87;;
77769;SDS011;66961;51.482;9.160;2023-05-25T08:42:56;19.50;;;11.85;;
77769;SDS011;66961;51.482;9.160;2023-05-25T08:45:22;24.60;;;12.90;;
77769;SDS011;66961;51.482;9.160;2023-05-25T08:47:47;20.05;;;11.60;;
77769;SDS011;66961;51.482;9.160;2023-05-25T08:50:16;19.25;;;11.00;;
77769;SDS011;66961;51.482;9.160;2023-05-25T08:52:43;18.23;;;10.32;;
77769;SDS011;66961;51.482;9.160;2023-05-25T08:55:09;17.45;;;10.90;;
77769;SDS011;66961;51.482;9.160;2023-05-25T09:00:15;18.92;;;11.13;;
77769;SDS011;66961;51.482;9.160;2023-05-25T09:05:28;17.85;;;10.40;;
77769;SDS011;66961;51.482;9.160;2023-05-25T09:07:54;14.73;;;10.30;;
77769;SDS011;66961;51.482;9.160;2023-05-25T09:10:20;15.75;;;9.95;;
77769;SDS011;66961;51.482;9.160;2023-05-25T09:12:47;16.63;;;9.90;;
77769;SDS011;66961;51.482;9.160;2023-05-25T09:15:15;17.38;;;9.90;;
77769;SDS011;66961;51.482;9.160;2023-05-25T09:17:40;15.80;;;10.57;;
77769;SDS011;66961;51.482;9.160;2023-05-25T09:20:07;17.43;;;9.80;;
77769;SDS011;66961;51.482;9.160;2023-05-25T09:22:34;14.82;;;9.00;;
77769;SDS011;66961;51.482;9.160;2023-05-25T09:25:00;15.43;;;9.32;;
77769;SDS011;66961;51.482;9.160;2023-05-25T09:27:32;14.60;;;8.82;;
77769;SDS011;66961;51.482;9.160;2023-05-25T09:29:59;13.52;;;9.50;;
77769;SDS011;66961;51.482;9.160;2023-05-25T09:32:26;13.90;;;9.10;;
77769;SDS011;66961;51.482;9.160;2023-05-25T09:34:51;20.50;;;9.70;;
77769;SDS011;66961;51.482;9.160;2023-05-25T09:37:17;16.08;;;9.70;;
77769;SDS011;66961;51.482;9.160;2023-05-25T09:39:43;15.27;;;9.10;;
77769;SDS011;66961;51.482;9.160;2023-05-25T09:42:09;14.70;;;9.05;;
77769;SDS011;66961;51.482;9.160;2023-05-25T09:44:35;15.20;;;9.02;;
77769;SDS011;66961;51.482;9.160;2023-05-25T09:47:01;14.13;;;8.60;;
77769;SDS011;66961;51.482;9.160;2023-05-25T09:49:27;14.82;;;9.13;;
77769;SDS011;66961;51.482;9.160;2023-05-25T09:51:52;13.02;;;8.13;;
77769;SDS011;66961;51.482;9.160;2023-05-25T09:54:18;17.48;;;9.18;;
77769;SDS011;66961;51.482;9.160;2023-05-25T09:56:45;17.95;;;9.57;;
77769;SDS011;66961;51.482;9.160;2023-05-25T09:59:11;12.90;;;8.15;;
77769;SDS011;66961;51.482;9.160;2023-05-25T10:01:36;11.97;;;7.83;;
77769;SDS011;66961;51.482;9.160;2023-05-25T10:04:02;11.13;;;7.95;;
77769;SDS011;66961;51.482;9.160;2023-05-25T10:06:27;13.60;;;8.18;;
77769;SDS011;66961;51.482;9.160;2023-05-25T10:08:55;12.88;;;7.75;;
77769;SDS011;66961;51.482;9.160;2023-05-25T10:11:21;14.75;;;8.32;;
77769;SDS011;66961;51.482;9.160;2023-05-25T10:13:47;11.07;;;7.93;;
77769;SDS011;66961;51.482;9.160;2023-05-25T10:16:15;13.35;;;7.82;;
77769;SDS011;66961;51.482;9.160;2023-05-25T10:18:42;14.77;;;8.35;;
77769;SDS011;66961;51.482;9.160;2023-05-25T10:21:11;16.20;;;8.07;;
77769;SDS011;66961;51.482;9.160;2023-05-25T10:23:43;11.75;;;7.68;;
77769;SDS011;66961;51.482;9.160;2023-05-25T10:26:11;12.27;;;7.63;;
77769;SDS011;66961;51.482;9.160;2023-05-25T10:28:40;11.82;;;7.53;;
77769;SDS011;66961;51.482;9.160;2023-05-25T10:31:08;12.68;;;7.03;;
77769;SDS011;66961;51.482;9.160;2023-05-25T10:33:34;11.82;;;6.82;;
77769;SDS011;66961;51.482;9.160;2023-05-25T10:35:59;11.07;;;7.23;;
77769;SDS011;66961;51.482;9.160;2023-05-25T10:38:26;10.50;;;6.68;;
77769;SDS011;66961;51.482;9.160;2023-05-25T10:40:54;13.35;;;8.23;;
77769;SDS011;66961;51.482;9.160;2023-05-25T10:43:20;13.03;;;8.00;;
77769;SDS011;66961;51.482;9.160;2023-05-25T10:45:47;12.02;;;8.07;;
77769;SDS011;66961;51.482;9.160;2023-05-25T10:48:13;11.60;;;6.75;;
77769;SDS011;66961;51.482;9.160;2023-05-25T10:50:39;14.50;;;8.25;;
77769;SDS011;66961;51.482;9.160;2023-05-25T10:53:05;13.65;;;8.02;;
77769;SDS011;66961;51.482;9.160;2023-05-25T10:58:15;16.02;;;8.20;;
77769;SDS011;66961;51.482;9.160;2023-05-25T11:00:42;11.15;;;7.10;;
77769;SDS011;66961;51.482;9.160;2023-05-25T11:03:08;11.32;;;6.90;;
77769;SDS011;66961;51.482;9.160;2023-05-25T11:05:34;14.25;;;7.32;;
77769;SDS011;66961;51.482;9.160;2023-05-25T11:08:08;11.15;;;7.13;;
77769;SDS011;66961;51.482;9.160;2023-05-25T11:13:21;10.02;;;5.97;;
77769;SDS011;66961;51.482;9.160;2023-05-25T11:18:50;9.40;;;6.35;;
77769;SDS011;66961;51.482;9.160;2023-05-25T11:21:21;12.02;;;5.72;;
77769;SDS011;66961;51.482;9.160;2023-05-25T11:24:09;10.23;;;5.55;;
77769;SDS011;66961;51.482;9.160;2023-05-25T11:26:39;11.05;;;6.13;;
77769;SDS011;66961;51.482;9.160;2023-05-25T11:29:17;11.93;;;5.63;;
77769;SDS011;66961;51.482;9.160;2023-05-25T11:31:44;12.23;;;6.20;;
77769;SDS011;66961;51.482;9.160;2023-05-25T11:34:15;9.65;;;6.10;;
77769;SDS011;66961;51.482;9.160;2023-05-25T11:36:41;13.38;;;6.32;;
77769;SDS011;66961;51.482;9.160;2023-05-25T11:39:07;11.40;;;6.85;;
77769;SDS011;66961;51.482;9.160;2023-05-25T11:41:32;7.85;;;5.85;;
77769;SDS011;66961;51.482;9.160;2023-05-25T11:44:04;11.07;;;6.32;;
77769;SDS011;66961;51.482;9.160;2023-05-25T11:46:31;11.00;;;5.00;;
77769;SDS011;66961;51.482;9.160;2023-05-25T11:48:56;10.32;;;5.57;;
77769;SDS011;66961;51.482;9.160;2023-05-25T11:51:23;9.52;;;5.20;;
77769;SDS011;66961;51.482;9.160;2023-05-25T11:53:50;9.07;;;5.35;;
77769;SDS011;66961;51.482;9.160;2023-05-25T11:56:17;8.32;;;4.95;;
77769;SDS011;66961;51.482;9.160;2023-05-25T11:58:43;8.82;;;5.07;;
77769;SDS011;66961;51.482;9.160;2023-05-25T12:01:13;8.73;;;5.13;;
77769;SDS011;66961;51.482;9.160;2023-05-25T12:03:40;9.23;;;4.75;;
77769;SDS011;66961;51.482;9.160;2023-05-25T12:06:05;9.82;;;5.32;;
77769;SDS011;66961;51.482;9.160;2023-05-25T12:08:31;8.83;;;5.90;;
77769;SDS011;66961;51.482;9.160;2023-05-25T12:11:00;11.27;;;5.75;;
77769;SDS011;66961;51.482;9.160;2023-05-25T12:13:26;7.90;;;5.30;;
77769;SDS011;66961;51.482;9.160;2023-05-25T12:15:54;9.23;;;5.63;;
77769;SDS011;66961;51.482;9.160;2023-05-25T12:18:20;8.63;;;5.20;;
77769;SDS011;66961;51.482;9.160;2023-05-25T12:20:45;10.20;;;5.70;;
77769;SDS011;66961;51.482;9.160;2023-05-25T12:23:11;11.27;;;6.15;;
77769;SDS011;66961;51.482;9.160;2023-05-25T12:25:36;13.18;;;5.30;;
77769;SDS011;66961;51.482;9.160;2023-05-25T12:28:08;10.30;;;5.43;;
77769;SDS011;66961;51.482;9.160;2023-05-25T12:30:37;10.13;;;6.03;;
77769;SDS011;66961;51.482;9.160;2023-05-25T12:33:03;9.50;;;5.03;;
77769;SDS011;66961;51.482;9.160;2023-05-25T12:35:28;11.48;;;6.60;;
77769;SDS011;66961;51.482;9.160;2023-05-25T12:38:10;9.95;;;6.28;;
77769;SDS011;66961;51.482;9.160;2023-05-25T12:40:35;10.23;;;6.78;;
77769;SDS011;66961;51.482;9.160;2023-05-25T12:43:01;10.65;;;7.30;;
77769;SDS011;66961;51.482;9.160;2023-05-25T12:45:26;10.20;;;7.15;;
77769;SDS011;66961;51.482;9.160;2023-05-25T12:47:51;11.52;;;7.57;;
77769;SDS011;66961;51.482;9.160;2023-05-25T12:50:17;12.50;;;7.13;;
77769;SDS011;66961;51.482;9.160;2023-05-25T12:52:43;10.85;;;7.60;;
77769;SDS011;66961;51.482;9.160;2023-05-25T12:57:51;13.88;;;7.05;;
77769;SDS011;66961;51.482;9.160;2023-05-25T13:02:45;10.23;;;6.68;;
77769;SDS011;66961;51.482;9.160;2023-05-25T13:05:18;8.52;;;6.57;;
77769;SDS011;66961;51.482;9.160;2023-05-25T13:07:44;10.27;;;6.85;;
77769;SDS011;66961;51.482;9.160;2023-05-25T13:10:11;9.35;;;5.93;;
77769;SDS011;66961;51.482;9.160;2023-05-25T13:12:36;8.27;;;6.35;;
77769;SDS011;66961;51.482;9.160;2023-05-25T13:15:02;9.57;;;6.78;;
77769;SDS011;66961;51.482;9.160;2023-05-25T13:17:27;10.20;;;6.72;;
77769;SDS011;66961;51.482;9.160;2023-05-25T13:19:52;8.23;;;6.32;;
77769;SDS011;66961;51.482;9.160;2023-05-25T13:22:18;9.70;;;6.67;;
77769;SDS011;66961;51.482;9.160;2023-05-25T13:24:43;10.97;;;6.40;;
77769;SDS011;66961;51.482;9.160;2023-05-25T13:27:08;9.03;;;6.63;;
77769;SDS011;66961;51.482;9.160;2023-05-25T13:29:33;7.67;;;6.10;;
77769;SDS011;66961;51.482;9.160;2023-05-25T13:31:59;7.80;;;6.20;;
77769;SDS011;66961;51.482;9.160;2023-05-25T13:34:24;8.00;;;5.57;;
77769;SDS011;66961;51.482;9.160;2023-05-25T13:36:49;9.23;;;5.33;;
77769;SDS011;66961;51.482;9.160;2023-05-25T13:39:14;6.50;;;5.50;;
77769;SDS011;66961;51.482;9.160;2023-05-25T13:41:40;6.70;;;5.37;;
77769;SDS011;66961;51.482;9.160;2023-05-25T13:44:05;9.43;;;6.20;;
77769;SDS011;66961;51.482;9.160;2023-05-25T13:46:30;8.35;;;5.68;;
77769;SDS011;66961;51.482;9.160;2023-05-25T13:48:55;7.30;;;5.50;;
77769;SDS011;66961;51.482;9.160;2023-05-25T13:51:21;7.55;;;5.00;;
77769;SDS011;66961;51.482;9.160;2023-05-25T13:53:46;6.40;;;4.95;;
77769;SDS011;66961;51.482;9.160;2023-05-25T13:56:11;8.70;;;4.90;;
77769;SDS011;66961;51.482;9.160;2023-05-25T13:58:37;6.10;;;4.70;;
77769;SDS011;66961;51.482;9.160;2023-05-25T14:01:02;6.85;;;5.07;;
77769;SDS011;66961;51.482;9.160;2023-05-25T14:03:28;7.15;;;4.43;;
77769;SDS011;66961;51.482;9.160;2023-05-25T14:05:53;5.13;;;4.47;;
77769;SDS011;66961;51.482;9.160;2023-05-25T14:08:19;7.10;;;4.63;;
77769;SDS011;66961;51.482;9.160;2023-05-25T14:10:44;8.88;;;5.10;;
77769;SDS011;66961;51.482;9.160;2023-05-25T14:13:09;6.43;;;4.60;;
77769;SDS011;66961;51.482;9.160;2023-05-25T14:15:35;7.82;;;4.40;;
77769;SDS011;66961;51.482;9.160;2023-05-25T14:18:00;5.75;;;4.15;;
77769;SDS011;66961;51.482;9.160;2023-05-25T14:20:25;7.38;;;4.53;;
77769;SDS011;66961;51.482;9.160;2023-05-25T14:22:51;8.13;;;4.55;;
77769;SDS011;66961;51.482;9.160;2023-05-25T14:25:16;7.65;;;4.40;;
77769;SDS011;66961;51.482;9.160;2023-05-25T14:27:42;7.72;;;4.53;;
77769;SDS011;66961;51.482;9.160;2023-05-25T14:30:08;7.45;;;4.78;;
77769;SDS011;66961;51.482;9.160;2023-05-25T14:32:33;6.82;;;4.35;;
77769;SDS011;66961;51.482;9.160;2023-05-25T14:34:59;8.40;;;5.03;;
77769;SDS011;66961;51.482;9.160;2023-05-25T14:37:24;6.65;;;5.20;;
77769;SDS011;66961;51.482;9.160;2023-05-25T14:39:49;9.90;;;5.35;;
77769;SDS011;66961;51.482;9.160;2023-05-25T14:42:15;8.02;;;4.80;;
77769;SDS011;66961;51.482;9.160;2023-05-25T14:44:40;9.88;;;5.18;;
77769;SDS011;66961;51.482;9.160;2023-05-25T14:47:05;8.18;;;5.47;;